South Milwaukee, WI (53172)

6:31 PM CDT on July 28, 2016 (GMT -0500)
South Milwaukee | | Change Station

Elev 687 ft 42.91 °N, 87.88 °W | Updated 2 seconds ago

Mostly Cloudy
Mostly Cloudy
68.1 °F
Feels Like 68.1 °F
N
3.0
Wind Variable Wind from WNW
Gusts 5.0 mph

Today
High -- | Low -- °F
--% Chance of Precip.
Yesterday
High -- | Low -- °F
Precip. -- in
Pressure 29.93 in
Visibility 10.0 miles
Clouds Few 800 ft
Scattered Clouds 1800 ft
Mostly Cloudy 8000 ft
Dew Point 66 °F
Humidity 92%
Rainfall in
Snow Depth Not available.
5:38 AM 8:16 PM
Waning Crescent, 28% visible
SPECI KMKE 282312Z 01012G19KT 10SM FEW008 SCT018 BKN080 20/18 A2993 RMK AO2 T02000178
Pressure 29.93 in
Visibility 10.0 miles
Clouds Few 800 ft
Scattered Clouds 1800 ft
Mostly Cloudy 8000 ft
Dew Point 66 °F
Humidity 92%
Rainfall in
Snow Depth Not available.
5:38 AM 8:16 PM
Waning Crescent, 28% visible
SPECI KMKE 282312Z 01012G19KT 10SM FEW008 SCT018 BKN080 20/18 A2993 RMK AO2 T02000178

10-Day Weather Forecast

Almanac

Astronomy

Jul. 28, 2016 Rise Set
Actual Time
Civil Twilight
Nautical Twilight
Astronomical Twilight
Moon
Length of Visible Light
Length of Day
Tomorrow will be .
, % of the Moon is Illuminated

Today's Extremes

State Highs State Lows

Community

WunderPhotos

Upload Photos

1,928,228 photos uploaded!

WunderBlog® & News

Nearby

Air Quality

  Air Quality AQ Index Pollutant
Not available.

Snow Depth

Station Depth Elevation

Earthquake Activity

City Distance Mag. Time & Date
Minimum magnitude displayed is 2.5.

Coastal Water Temperatures

Place Temperature

Stations

Nearby Weather Stations

Station Location Temp. Windchill Dew Point Humidity Wind Precip. Elev Updated Type
                   

Watches & Warnings

There are currently no watches in effect.